createdAt,value
2022-09-22T00:01:29.558Z,98929.19
2022-09-22T00:04:00.380Z,98918.50
2022-09-22T00:06:38.238Z,98917.66
2022-09-22T00:09:08.940Z,98919.69
2022-09-22T00:11:46.361Z,98915.44
2022-09-22T00:14:31.430Z,98916.00
2022-09-22T00:17:01.207Z,98925.38
2022-09-22T00:19:32.125Z,98916.22
2022-09-22T00:21:59.780Z,98919.13
2022-09-22T00:24:27.933Z,98917.09
2022-09-22T00:26:58.035Z,98916.53
2022-09-22T00:29:27.509Z,98918.53
2022-09-22T00:31:55.106Z,98914.59
2022-09-22T00:34:26.872Z,98914.25
2022-09-22T00:36:54.458Z,98907.97
2022-09-22T00:39:22.183Z,98911.94
2022-09-22T00:41:52.880Z,98912.00
2022-09-22T00:44:35.100Z,98909.19
2022-09-22T00:47:20.758Z,98912.44
2022-09-22T00:49:58.709Z,98917.25
2022-09-22T00:52:36.536Z,98919.25
2022-09-22T00:55:11.474Z,98911.84
2022-09-22T00:57:41.054Z,98922.81
2022-09-22T01:00:11.689Z,98911.94
2022-09-22T01:02:39.380Z,98916.22
2022-09-22T01:05:07.862Z,98906.16
2022-09-22T01:07:36.238Z,98905.03
2022-09-22T01:10:03.993Z,98899.53
2022-09-22T01:12:32.126Z,98905.00
2022-09-22T01:15:26.557Z,98895.91
2022-09-22T01:18:08.272Z,98899.22
2022-09-22T01:20:56.349Z,98895.69
2022-09-22T01:23:49.740Z,98894.75
2022-09-22T01:26:25.485Z,98893.69
2022-09-22T01:29:18.472Z,98904.19
2022-09-22T01:32:17.365Z,98904.38
2022-09-22T01:35:11.563Z,98903.94
2022-09-22T01:38:08.523Z,98896.25
2022-09-22T01:40:54.725Z,98903.47
2022-09-22T01:43:32.384Z,98894.59
2022-09-22T01:46:03.661Z,98890.66
2022-09-22T01:48:33.427Z,98890.66
2022-09-22T01:51:14.065Z,98890.59
2022-09-22T01:53:57.188Z,98886.03
2022-09-22T01:56:26.747Z,98892.22
2022-09-22T01:59:01.151Z,98892.69
2022-09-22T02:01:37.801Z,98889.47
2022-09-22T02:04:17.014Z,98896.59
2022-09-22T02:06:51.410Z,98895.06
2022-09-22T02:09:22.097Z,98892.41
2022-09-22T02:11:49.193Z,98893.22
2022-09-22T02:14:16.858Z,98888.75
2022-09-22T02:16:44.409Z,98887.88
2022-09-22T02:19:29.513Z,98883.88
2022-09-22T02:21:56.730Z,98887.63
2022-09-22T02:24:41.006Z,98875.00
2022-09-22T02:27:25.688Z,98878.25
2022-09-22T02:30:08.598Z,98874.50
2022-09-22T02:32:39.517Z,98874.53
2022-09-22T02:35:08.434Z,98874.63
2022-09-22T02:38:02.397Z,98870.03
2022-09-22T02:40:48.895Z,98868.03
2022-09-22T02:43:49.856Z,98865.59
2022-09-22T02:46:30.499Z,98870.03
2022-09-22T02:49:04.525Z,98870.47
2022-09-22T02:51:32.541Z,98870.31
2022-09-22T02:53:59.664Z,98876.09
2022-09-22T02:56:26.630Z,98872.06
2022-09-22T02:58:58.164Z,98868.31
2022-09-22T03:01:25.972Z,98869.91
2022-09-22T03:03:53.126Z,98865.66
2022-09-22T03:06:20.143Z,98864.56
2022-09-22T03:08:47.118Z,98867.81
2022-09-22T03:11:14.045Z,98873.63
2022-09-22T03:13:41.117Z,98864.31
2022-09-22T03:16:08.392Z,98862.47
2022-09-22T03:18:35.566Z,98864.41
2022-09-22T03:21:02.522Z,98864.31
2022-09-22T03:23:29.740Z,98855.72
2022-09-22T03:25:56.788Z,98864.66
2022-09-22T03:28:23.724Z,98861.06
2022-09-22T03:30:50.689Z,98861.50
2022-09-22T03:33:17.733Z,98865.00
2022-09-22T03:35:44.677Z,98858.88
2022-09-22T03:38:11.778Z,98853.31
2022-09-22T03:40:38.719Z,98859.44
2022-09-22T03:43:05.717Z,98855.41
2022-09-22T03:45:32.848Z,98855.47
2022-09-22T03:48:00.108Z,98854.38
2022-09-22T03:50:28.336Z,98858.19
2022-09-22T03:52:56.610Z,98851.91
2022-09-22T03:55:24.549Z,98848.50
2022-09-22T03:57:51.727Z,98844.41
2022-09-22T04:00:18.948Z,98847.75
2022-09-22T04:02:45.884Z,98852.78
2022-09-22T04:05:12.981Z,98854.25
2022-09-22T04:07:40.006Z,98855.78
2022-09-22T04:10:07.836Z,98848.25
2022-09-22T04:12:35.047Z,98847.78
2022-09-22T04:15:01.994Z,98845.44
2022-09-22T04:17:28.944Z,98846.63
2022-09-22T04:19:55.995Z,98843.78
2022-09-22T04:22:22.970Z,98844.75
2022-09-22T04:24:49.918Z,98843.84
2022-09-22T04:27:20.933Z,98844.38
2022-09-22T04:29:48.834Z,98844.66
2022-09-22T04:32:17.109Z,98851.66
2022-09-22T04:34:44.279Z,98848.78
2022-09-22T04:37:12.152Z,98841.09
2022-09-22T04:39:39.408Z,98844.84
2022-09-22T04:42:06.536Z,98851.06
2022-09-22T04:44:35.427Z,98852.75
2022-09-22T04:47:03.971Z,98857.06
2022-09-22T04:49:31.153Z,98851.78
2022-09-22T04:51:58.116Z,98841.03
2022-09-22T04:54:25.091Z,98836.56
2022-09-22T04:56:52.079Z,98844.63
2022-09-22T04:59:19.121Z,98843.84
2022-09-22T05:01:46.101Z,98842.28
2022-09-22T05:04:13.166Z,98843.91
2022-09-22T05:06:41.696Z,98852.69
2022-09-22T05:09:08.669Z,98851.34
2022-09-22T05:11:35.723Z,98859.00
2022-09-22T05:14:02.696Z,98857.63
2022-09-22T05:16:31.827Z,98851.50
2022-09-22T05:18:58.855Z,98860.91
2022-09-22T05:21:26.126Z,98869.25
2022-09-22T05:23:53.634Z,98863.59
2022-09-22T05:26:20.567Z,98868.25
2022-09-22T05:28:47.566Z,98869.41
2022-09-22T05:31:14.611Z,98868.56
2022-09-22T05:33:41.656Z,98869.53
2022-09-22T05:36:08.766Z,98870.56
2022-09-22T05:38:36.104Z,98864.44
2022-09-22T05:41:03.743Z,98865.25
2022-09-22T05:43:30.778Z,98861.28
2022-09-22T05:45:57.842Z,98861.66
2022-09-22T05:48:30.274Z,98865.41
2022-09-22T05:50:58.356Z,98861.28
2022-09-22T05:53:25.701Z,98867.31
2022-09-22T05:55:52.714Z,98870.31
2022-09-22T05:58:20.525Z,98873.91
2022-09-22T06:00:47.579Z,98878.00
2022-09-22T06:03:14.689Z,98873.47
2022-09-22T06:05:41.928Z,98878.72
2022-09-22T06:08:09.720Z,98871.41
2022-09-22T06:10:38.841Z,98876.38
2022-09-22T06:13:09.204Z,98872.75
2022-09-22T06:15:38.392Z,98874.31
2022-09-22T06:18:13.068Z,98872.47
2022-09-22T06:20:40.987Z,98876.97
2022-09-22T06:23:09.040Z,98867.75
2022-09-22T06:25:35.979Z,98876.22
2022-09-22T06:28:09.658Z,98882.56
2022-09-22T06:30:40.754Z,98879.97
2022-09-22T06:33:11.382Z,98876.56
2022-09-22T06:35:42.860Z,98873.66
2022-09-22T06:38:14.991Z,98877.34
2022-09-22T06:40:42.553Z,98873.38
2022-09-22T06:43:25.353Z,98878.84
2022-09-22T06:45:52.777Z,98883.31
2022-09-22T06:48:24.043Z,98867.31
2022-09-22T06:50:54.805Z,98869.47
2022-09-22T06:53:25.485Z,98866.81
2022-09-22T06:55:54.364Z,98861.28
2022-09-22T06:58:22.370Z,98862.75
2022-09-22T07:00:50.577Z,98858.38
2022-09-22T07:03:22.603Z,98859.22
2022-09-22T07:06:00.869Z,98864.44
2022-09-22T07:08:30.356Z,98860.19
2022-09-22T07:11:03.845Z,98862.88
2022-09-22T07:13:32.671Z,98865.47
2022-09-22T07:16:24.704Z,98856.25
2022-09-22T07:18:54.923Z,98865.78
2022-09-22T07:21:27.471Z,98860.16
2022-09-22T07:23:56.060Z,98859.34
2022-09-22T07:26:33.422Z,98864.53
2022-09-22T07:29:08.544Z,98865.06
2022-09-22T07:31:36.691Z,98858.63
2022-09-22T07:34:04.413Z,98855.97
2022-09-22T07:36:34.426Z,98851.47
2022-09-22T07:39:08.105Z,98866.06
2022-09-22T07:41:43.191Z,98864.53
2022-09-22T07:44:32.412Z,98861.00
2022-09-22T07:47:00.486Z,98864.03
2022-09-22T07:49:27.663Z,98862.31
2022-09-22T07:51:55.262Z,98859.19
2022-09-22T07:54:47.763Z,98865.63
2022-09-22T07:57:17.561Z,98860.34
2022-09-22T07:59:45.964Z,98861.94
2022-09-22T08:02:16.476Z,98856.25
2022-09-22T08:04:49.146Z,98848.50
2022-09-22T08:07:22.347Z,98852.97
2022-09-22T08:09:52.133Z,98854.91
2022-09-22T08:12:20.447Z,98849.44
2022-09-22T08:14:50.442Z,98844.56
2022-09-22T08:17:20.009Z,98844.81
2022-09-22T08:19:47.778Z,98842.63
2022-09-22T08:22:15.470Z,98841.16
2022-09-22T08:24:45.875Z,98838.16
2022-09-22T08:27:12.993Z,98845.94
2022-09-22T08:29:40.437Z,98837.66
2022-09-22T08:32:08.216Z,98835.16
2022-09-22T08:34:35.406Z,98834.59
2022-09-22T08:37:05.724Z,98830.97
2022-09-22T08:39:32.952Z,98839.47
2022-09-22T08:42:20.820Z,98825.94
2022-09-22T08:44:53.922Z,98826.47
2022-09-22T08:47:52.147Z,98835.53
2022-09-22T08:50:58.787Z,98831.22
2022-09-22T08:53:33.564Z,98830.75
2022-09-22T08:56:33.701Z,98829.22
2022-09-22T08:59:23.208Z,98826.03
2022-09-22T09:02:41.301Z,98824.97
2022-09-22T09:05:39.307Z,98828.47
2022-09-22T09:08:47.475Z,98821.72
2022-09-22T09:12:06.877Z,98815.09
2022-09-22T09:15:08.477Z,98819.59
2022-09-22T09:17:42.104Z,98816.03
2022-09-22T09:20:33.530Z,98825.66
2022-09-22T09:23:05.386Z,98831.22
2022-09-22T09:25:43.786Z,98825.38
2022-09-22T09:28:22.957Z,98819.69
2022-09-22T09:30:59.415Z,98816.28
2022-09-22T09:33:40.801Z,98813.06
2022-09-22T09:36:20.530Z,98821.00
2022-09-22T09:39:30.050Z,98814.75
2022-09-22T09:42:27.193Z,98805.81
2022-09-22T09:45:17.240Z,98811.34
2022-09-22T09:48:57.108Z,98797.78
2022-09-22T09:55:35.246Z,98798.50
2022-09-22T09:58:07.816Z,98790.13
2022-09-22T10:00:53.743Z,98801.72
2022-09-22T10:03:47.586Z,98801.78
2022-09-22T10:06:24.144Z,98792.25
2022-09-22T10:08:51.751Z,98788.31
2022-09-22T10:11:31.096Z,98793.22
2022-09-22T10:13:58.886Z,98786.09
2022-09-22T10:16:31.653Z,98783.06
2022-09-22T10:18:58.685Z,98793.75
2022-09-22T10:21:28.047Z,98778.81
2022-09-22T10:23:58.562Z,98782.53
2022-09-22T10:26:32.228Z,98782.28
2022-09-22T10:29:18.800Z,98780.75
2022-09-22T10:32:14.533Z,98771.09
2022-09-22T10:34:47.926Z,98766.38
2022-09-22T10:37:18.651Z,98773.41
2022-09-22T10:39:52.071Z,98766.91
2022-09-22T10:42:40.787Z,98771.69
2022-09-22T10:45:15.505Z,98767.56
2022-09-22T10:47:58.935Z,98760.28
2022-09-22T10:50:34.913Z,98770.16
2022-09-22T10:53:39.531Z,98763.25
2022-09-22T10:56:15.250Z,98755.50
2022-09-22T10:59:00.190Z,98753.09
2022-09-22T11:02:01.898Z,98749.31
2022-09-22T11:04:54.147Z,98753.06
2022-09-22T11:07:52.673Z,98755.19
2022-09-22T11:10:42.410Z,98755.25
2022-09-22T11:13:51.758Z,98751.03
2022-09-22T11:17:19.416Z,98752.66
2022-09-22T11:20:38.904Z,98745.28
2022-09-22T11:23:39.402Z,98730.59
2022-09-22T11:26:20.586Z,98732.63
2022-09-22T11:29:20.343Z,98727.72
2022-09-22T11:32:14.964Z,98728.41
2022-09-22T11:35:23.718Z,98725.94
2022-09-22T11:38:23.763Z,98716.84
2022-09-22T11:41:17.798Z,98729.88
2022-09-22T11:44:26.303Z,98708.34
2022-09-22T11:47:26.496Z,98706.03
2022-09-22T11:50:21.413Z,98708.91
2022-09-22T11:53:36.571Z,98707.28
2022-09-22T11:56:17.514Z,98703.06
2022-09-22T11:58:46.053Z,98704.91
2022-09-22T12:01:20.370Z,98693.59
2022-09-22T12:03:58.620Z,98691.88
2022-09-22T12:06:32.239Z,98699.53
2022-09-22T12:09:05.083Z,98698.84
2022-09-22T12:11:35.133Z,98693.06
2022-09-22T12:14:02.939Z,98691.81
2022-09-22T12:16:45.509Z,98683.50
2022-09-22T12:19:43.302Z,98683.22
2022-09-22T12:22:46.911Z,98673.19
2022-09-22T12:25:21.220Z,98664.53
2022-09-22T12:28:03.882Z,98663.28
2022-09-22T12:30:30.840Z,98666.88
2022-09-22T12:32:57.862Z,98663.72
2022-09-22T12:35:31.413Z,98667.56
2022-09-22T12:38:02.368Z,98665.59
2022-09-22T12:40:35.578Z,98662.69
2022-09-22T12:43:02.928Z,98652.78
2022-09-22T12:45:36.543Z,98662.41
2022-09-22T12:48:23.411Z,98658.66
2022-09-22T12:50:52.188Z,98649.47
2022-09-22T12:53:21.981Z,98645.50
2022-09-22T12:55:54.955Z,98642.22
2022-09-22T12:58:22.455Z,98645.66
2022-09-22T13:00:54.486Z,98644.47
2022-09-22T13:03:27.376Z,98644.44
2022-09-22T13:05:56.789Z,98652.75
2022-09-22T13:08:32.914Z,98645.03
2022-09-22T13:11:05.615Z,98654.41
2022-09-22T13:13:36.713Z,98639.63
2022-09-22T13:16:15.503Z,98646.03
2022-09-22T13:18:48.794Z,98647.09
2022-09-22T13:21:16.164Z,98653.66
2022-09-22T13:23:52.184Z,98636.66
2022-09-22T13:26:31.084Z,98642.28
2022-09-22T13:29:16.044Z,98639.53
2022-09-22T13:31:50.968Z,98632.38
2022-09-22T13:34:37.337Z,98625.22
2022-09-22T13:37:08.714Z,98622.00
2022-09-22T13:39:46.277Z,98635.88
2022-09-22T13:42:35.242Z,98628.84
2022-09-22T13:45:16.805Z,98638.28
2022-09-22T13:47:45.682Z,98631.53
2022-09-22T13:50:22.001Z,98629.72
2022-09-22T13:52:51.524Z,98631.03
2022-09-22T13:55:37.311Z,98623.00
2022-09-22T13:58:09.014Z,98614.38
2022-09-22T14:01:09.078Z,98617.56
2022-09-22T14:03:38.159Z,98627.47
2022-09-22T14:06:10.597Z,98619.22
2022-09-22T14:08:37.887Z,98624.84
2022-09-22T14:11:15.463Z,98615.06
2022-09-22T14:14:01.644Z,98618.69
2022-09-22T14:17:04.715Z,98603.41
2022-09-22T14:19:41.082Z,98612.34
2022-09-22T14:22:29.477Z,98615.44
2022-09-22T14:25:00.044Z,98618.28
2022-09-22T14:27:48.000Z,98608.75
2022-09-22T14:30:18.646Z,98610.38
2022-09-22T14:32:55.048Z,98598.66
2022-09-22T14:35:38.614Z,98597.03
2022-09-22T14:38:16.674Z,98593.16
2022-09-22T14:40:54.042Z,98598.66
2022-09-22T14:43:33.262Z,98594.59
2022-09-22T14:46:07.377Z,98599.75
2022-09-22T14:48:36.573Z,98587.44
2022-09-22T14:51:20.412Z,98592.91
2022-09-22T14:53:57.794Z,98582.03
2022-09-22T14:56:28.273Z,98592.44
2022-09-22T14:59:26.659Z,98589.66
2022-09-22T15:02:14.442Z,98586.75
2022-09-22T15:04:50.068Z,98578.72
2022-09-22T15:07:29.242Z,98580.09
2022-09-22T15:10:00.267Z,98581.13
2022-09-22T15:12:46.163Z,98581.69
2022-09-22T15:15:29.223Z,98577.47
2022-09-22T15:18:13.293Z,98576.19
2022-09-22T15:20:46.612Z,98568.47
2022-09-22T15:23:16.665Z,98565.00
2022-09-22T15:25:44.814Z,98566.03
2022-09-22T15:28:15.461Z,98566.84
2022-09-22T15:30:44.639Z,98568.69
2022-09-22T15:33:13.542Z,98560.59
2022-09-22T15:35:46.841Z,98565.53
2022-09-22T15:38:24.071Z,98564.13
2022-09-22T15:40:51.550Z,98560.66
2022-09-22T15:43:22.982Z,98562.53
2022-09-22T15:45:56.708Z,98558.00
2022-09-22T15:48:35.056Z,98554.47
2022-09-22T15:51:06.004Z,98560.19
2022-09-22T15:53:34.715Z,98556.50
2022-09-22T15:56:05.221Z,98555.88
2022-09-22T15:58:37.431Z,98553.53
2022-09-22T16:01:05.594Z,98550.66
2022-09-22T16:03:40.796Z,98550.25
2022-09-22T16:06:12.306Z,98547.00
2022-09-22T16:08:43.755Z,98549.09
2022-09-22T16:11:15.390Z,98551.13
2022-09-22T16:13:42.846Z,98552.28
2022-09-22T16:16:10.804Z,98549.13
2022-09-22T16:18:39.527Z,98550.66
2022-09-22T16:21:20.992Z,98544.22
2022-09-22T16:23:48.076Z,98543.88
2022-09-22T16:26:15.481Z,98554.59
2022-09-22T16:28:42.462Z,98551.41
2022-09-22T16:31:09.459Z,98551.22
2022-09-22T16:33:36.497Z,98550.28
2022-09-22T16:36:04.589Z,98549.13
2022-09-22T16:38:33.771Z,98554.13
2022-09-22T16:41:23.976Z,98542.75
2022-09-22T16:43:51.810Z,98545.28
2022-09-22T16:46:30.078Z,98545.78
2022-09-22T16:49:00.769Z,98545.44
2022-09-22T16:51:28.726Z,98550.50
2022-09-22T16:53:57.860Z,98547.53
2022-09-22T16:56:31.140Z,98552.25
2022-09-22T16:59:01.263Z,98553.88
2022-09-22T17:01:31.332Z,98551.94
2022-09-22T17:03:58.877Z,98551.59
2022-09-22T17:06:27.236Z,98551.88
2022-09-22T17:08:58.565Z,98553.03
2022-09-22T17:11:34.413Z,98553.75
2022-09-22T17:14:08.875Z,98560.09
2022-09-22T17:16:44.063Z,98561.50
2022-09-22T17:19:18.371Z,98560.09
2022-09-22T17:21:51.886Z,98555.16
2022-09-22T17:24:19.445Z,98559.53
2022-09-22T17:26:53.391Z,98562.19
2022-09-22T17:29:29.740Z,98566.38
2022-09-22T17:32:10.105Z,98560.47
2022-09-22T17:34:38.732Z,98570.47
2022-09-22T17:37:06.053Z,98563.56
2022-09-22T17:39:33.812Z,98570.91
2022-09-22T17:42:01.257Z,98570.25
2022-09-22T17:44:28.710Z,98569.31
2022-09-22T17:47:20.390Z,98568.81
2022-09-22T17:50:06.302Z,98557.69
2022-09-22T17:52:33.229Z,98562.53
2022-09-22T17:55:14.168Z,98572.16
2022-09-22T17:57:46.611Z,98570.47
2022-09-22T18:00:21.460Z,98569.66
2022-09-22T18:02:55.496Z,98573.84
2022-09-22T18:05:26.626Z,98573.66
2022-09-22T18:07:58.344Z,98575.84
2022-09-22T18:10:32.029Z,98571.03
2022-09-22T18:12:59.852Z,98576.16
2022-09-22T18:15:29.067Z,98573.91
2022-09-22T18:17:57.956Z,98582.72
2022-09-22T18:20:26.149Z,98578.38
2022-09-22T18:22:54.126Z,98576.44
2022-09-22T18:25:25.411Z,98578.47
2022-09-22T18:27:53.622Z,98580.66
2022-09-22T18:30:20.822Z,98581.81
2022-09-22T18:32:48.872Z,98578.69
2022-09-22T18:35:16.350Z,98582.84
2022-09-22T18:37:43.775Z,98589.38
2022-09-22T18:40:12.325Z,98583.50
2022-09-22T18:42:41.418Z,98577.41
2022-09-22T18:45:14.202Z,98582.91
2022-09-22T18:47:43.595Z,98579.69
2022-09-22T18:50:12.284Z,98586.03
2022-09-22T18:52:42.702Z,98587.19
2022-09-22T18:55:11.868Z,98586.41
2022-09-22T18:57:40.157Z,98590.63
2022-09-22T19:00:08.832Z,98601.34
2022-09-22T19:02:35.999Z,98600.22
2022-09-22T19:05:03.159Z,98599.69
2022-09-22T19:07:42.588Z,98603.22
2022-09-22T19:10:22.354Z,98602.72
2022-09-22T19:12:50.238Z,98603.63
2022-09-22T19:15:19.093Z,98602.91
2022-09-22T19:17:49.285Z,98602.34
2022-09-22T19:20:21.910Z,98602.13
2022-09-22T19:22:50.323Z,98601.19
2022-09-22T19:25:18.748Z,98595.81
2022-09-22T19:27:46.173Z,98601.19
2022-09-22T19:30:13.591Z,98592.34
2022-09-22T19:32:41.333Z,98597.06
2022-09-22T19:35:09.188Z,98600.09
2022-09-22T19:37:36.167Z,98599.97
2022-09-22T19:40:08.485Z,98595.63
2022-09-22T19:42:40.157Z,98590.78
2022-09-22T19:45:08.406Z,98601.13
2022-09-22T19:47:35.383Z,98598.34
2022-09-22T19:50:02.357Z,98598.19
2022-09-22T19:52:29.250Z,98595.69
2022-09-22T19:54:56.241Z,98594.66
2022-09-22T19:57:23.147Z,98600.81
2022-09-22T19:59:50.836Z,98593.06
2022-09-22T20:02:17.854Z,98597.91
2022-09-22T20:04:45.761Z,98592.44
2022-09-22T20:07:12.913Z,98597.31
2022-09-22T20:09:39.881Z,98590.09
2022-09-22T20:12:07.116Z,98590.94
2022-09-22T20:14:34.476Z,98593.19
2022-09-22T20:17:05.892Z,98588.53
2022-09-22T20:19:42.110Z,98594.47
2022-09-22T20:22:42.012Z,98587.09
2022-09-22T20:25:28.694Z,98584.81
2022-09-22T20:27:56.252Z,98582.81
2022-09-22T20:30:23.290Z,98590.19
2022-09-22T20:32:51.896Z,98579.88
2022-09-22T20:35:21.690Z,98576.25
2022-09-22T20:37:48.639Z,98575.03
2022-09-22T20:40:20.139Z,98575.19
2022-09-22T20:42:48.648Z,98574.19
2022-09-22T20:45:15.718Z,98569.91
2022-09-22T20:47:42.601Z,98566.84
2022-09-22T20:50:11.872Z,98576.69
2022-09-22T20:52:41.624Z,98573.00
2022-09-22T20:55:10.640Z,98566.84
2022-09-22T20:57:38.137Z,98568.28
2022-09-22T21:00:06.937Z,98565.38
2022-09-22T21:02:35.168Z,98573.81
2022-09-22T21:05:02.156Z,98573.38
2022-09-22T21:07:31.453Z,98565.59
2022-09-22T21:10:16.913Z,98569.28
2022-09-22T21:12:44.289Z,98573.59
2022-09-22T21:15:11.857Z,98570.72
2022-09-22T21:17:43.732Z,98568.47
2022-09-22T21:20:10.970Z,98572.78
2022-09-22T21:22:37.958Z,98568.00
2022-09-22T21:25:05.416Z,98567.22
2022-09-22T21:27:32.321Z,98572.16
2022-09-22T21:29:59.280Z,98564.38
2022-09-22T21:32:26.249Z,98559.25
2022-09-22T21:34:53.160Z,98560.69
2022-09-22T21:37:20.983Z,98562.94
2022-09-22T21:39:47.957Z,98565.41
2022-09-22T21:42:15.433Z,98562.75
2022-09-22T21:44:42.335Z,98555.94
2022-09-22T21:47:09.232Z,98559.25
2022-09-22T21:49:36.176Z,98557.78
2022-09-22T21:52:03.463Z,98555.75
2022-09-22T21:54:31.297Z,98550.63
2022-09-22T21:56:58.193Z,98550.78
2022-09-22T21:59:25.076Z,98552.69
2022-09-22T22:01:52.129Z,98549.59
2022-09-22T22:04:19.243Z,98543.84
2022-09-22T22:06:46.979Z,98543.66
2022-09-22T22:09:20.239Z,98542.25
2022-09-22T22:11:58.015Z,98536.06
2022-09-22T22:14:32.648Z,98525.22
2022-09-22T22:17:02.397Z,98535.25
2022-09-22T22:19:29.928Z,98529.13
2022-09-22T22:21:56.978Z,98524.41
2022-09-22T22:24:28.938Z,98530.31
2022-09-22T22:26:58.963Z,98529.47
2022-09-22T22:29:28.123Z,98522.53
2022-09-22T22:31:55.082Z,98525.44
2022-09-22T22:34:27.150Z,98519.69
2022-09-22T22:36:55.019Z,98519.09
2022-09-22T22:39:22.340Z,98519.69
2022-09-22T22:41:49.378Z,98525.03
2022-09-22T22:44:17.851Z,98528.31
2022-09-22T22:46:45.904Z,98518.47
2022-09-22T22:49:12.949Z,98521.31
2022-09-22T22:51:42.852Z,98515.97
2022-09-22T22:54:11.249Z,98517.84
2022-09-22T22:56:42.084Z,98515.59
2022-09-22T22:59:09.630Z,98514.19
2022-09-22T23:01:36.863Z,98513.94
2022-09-22T23:04:07.349Z,98507.00
2022-09-22T23:06:37.630Z,98509.03
2022-09-22T23:09:08.326Z,98504.13
2022-09-22T23:11:39.953Z,98501.03
2022-09-22T23:14:11.305Z,98502.66
2022-09-22T23:16:42.679Z,98493.88
2022-09-22T23:19:13.688Z,98491.41
2022-09-22T23:21:40.813Z,98489.53
2022-09-22T23:24:08.363Z,98493.03
2022-09-22T23:26:37.179Z,98493.03
2022-09-22T23:29:05.068Z,98493.03
2022-09-22T23:31:32.031Z,98488.09
2022-09-22T23:33:59.225Z,98501.19
2022-09-22T23:36:28.664Z,98492.81
2022-09-22T23:39:04.606Z,98498.56
2022-09-22T23:41:34.349Z,98493.00
2022-09-22T23:44:02.766Z,98489.06
2022-09-22T23:46:29.882Z,98489.69
2022-09-22T23:48:56.907Z,98491.56
2022-09-22T23:51:24.100Z,98482.75
2022-09-22T23:53:51.747Z,98482.75
2022-09-22T23:56:19.544Z,98480.69
2022-09-22T23:58:46.901Z,98479.66
